Pagrindinis puslapis
METAR-TAF:

METAR-TAF

Oro uostai :

Prezidente Prudentė, San Paulas, Brazilija

platuma: 22-07S, ilguma: 051-23W, Aukštis: 436 m

Dabartinis oras

Ataskaita buvo paskelbta 1 valandą ir 59 minutes, ne 21:00 UTC
Vėjas 4 kt iš Šiaurės/Šiaurės Rytų
Temperatūra 34°C
Drėgmė 13%
Slėgis 1012 hPa
Matomumas: 9000 m

METAR: SBDN 162100Z 03004KT 9000 NSC 34/02 Q1012

Laikas: 19:59 (22:59 UTC)

Prognozė

Ataskaita buvo paskelbta 6 valandos ir 59 minutes, ne 16:00 UTC
Prognozė galioja nuo 16 metu 18 UTC su 17 metu 06 UTC
Vėjas 8 kt iš Šiaurės Rytų
Matomumas 10 km arba daugiau
nėra debesų žemiau 1500 m ir nėra kamuolinių lietaus debesų

TAF: SBDN 161600Z 1618/1706 05008KT CAVOK TX37/1618Z TN27/1705Z RMK PDU

Orai ataskaitas ir orų prognozės (METAR, TAF).

turimą stotys yra geltonos ir raudonos taškus žemėlapyje.

Perkelti pele per norėdami pamatyti stoties vardą.

Tada spustelėkite, norėdami matyti oro stebėjimo ir prognozės.

Norėdami pakeisti žemėlapį: spustelėkite ant žalios mygtukų su juodo kryžiaus žemyn,; žalią mygtuką su brūkšneliu, jei norite nutolinti; arba žalių rodyklių gretimoms žemėlapius.


METAR-TAF: